Time;durP1;ratioP1;P1;durP2;ratioP2;P2;SDS_P1;SDS_P2;PMS_P1;PMS_P2;Temp;Humidity;BMP_temperature;BMP_pressure;BME280_temperature;BME280_humidity;BME280_pressure;Samples;Min_cycle;Max_cycle;Signal;HPM_P1;HPM_P2
2022/03/03 00:04:09;;;;;;;44.37;14.27;;;-0.60;64.60;;;-2.77;60.21;100372.28;10442074;27;97429;-76
2022/03/03 00:09:12;;;;;;;87.13;21.10;;;-0.60;66.70;;;-2.80;60.28;100367.25;10415335;28;96478;-76
2022/03/03 00:14:15;;;;;;;49.97;16.17;;;-0.60;66.40;;;-2.80;60.84;100375.06;10425687;27;96930;-76
2022/03/03 00:19:18;;;;;;;34.60;10.67;;;-0.70;67.10;;;-2.80;60.33;100369.00;10423247;27;96608;-76
2022/03/03 00:24:21;;;;;;;43.97;13.03;;;-0.60;65.60;;;-2.75;60.74;100365.25;10424293;27;96420;-76
2022/03/03 00:29:24;;;;;;;27.80;11.13;;;-0.70;67.60;;;-2.73;60.35;100371.22;10435465;27;97376;-76
2022/03/03 00:34:27;;;;;;;27.70;10.37;;;-0.60;66.50;;;-2.67;60.23;100369.22;10437403;27;96980;-76
2022/03/03 00:39:30;;;;;;;32.53;12.43;;;-0.60;67.40;;;-2.72;60.79;100366.84;10450791;27;96503;-76
2022/03/03 00:44:33;;;;;;;31.50;11.57;;;-0.60;68.10;;;-2.79;60.65;100357.69;10417071;27;96550;-76
2022/03/03 00:49:36;;;;;;;27.10;11.43;;;-0.70;66.80;;;-2.84;60.79;100362.28;10453498;27;96604;-76
2022/03/03 00:54:39;;;;;;;25.70;9.87;;;-0.70;68.50;;;-2.89;61.15;100351.25;10440021;27;96768;-76
2022/03/03 00:59:42;;;;;;;18.23;7.37;;;-0.70;69.60;;;-2.93;61.35;100354.97;10414395;27;98579;-76
2022/03/03 01:04:45;;;;;;;15.93;6.67;;;-0.80;68.50;;;-2.97;61.14;100347.31;10453574;27;96520;-75
2022/03/03 01:09:48;;;;;;;18.20;7.73;;;-0.80;67.80;;;-3.00;61.23;100342.28;10412546;28;96944;-74
2022/03/03 01:14:51;;;;;;;25.90;8.07;;;-0.80;67.50;;;-3.05;61.57;100336.47;10428592;27;96690;-75
2022/03/03 01:19:54;;;;;;;26.27;8.67;;;-0.90;68.20;;;-3.07;61.96;100332.25;10423404;27;97558;-75
2022/03/03 01:24:57;;;;;;;27.63;9.90;;;-0.90;67.50;;;-3.15;61.91;100326.59;10397322;28;96324;-75
2022/03/03 01:30:01;;;;;;;28.63;9.17;;;-1.00;68.20;;;-3.23;62.54;100337.41;10401979;28;96403;-75
2022/03/03 01:35:05;;;;;;;20.17;8.17;;;-1.00;71.30;;;-3.32;62.56;100317.03;10405318;27;96715;-75
2022/03/03 01:40:10;;;;;;;24.33;9.83;;;-1.10;69.80;;;-3.37;62.72;100313.84;10396412;28;96533;-75
2022/03/03 01:45:15;;;;;;;19.57;8.20;;;-1.20;69.80;;;-3.41;63.20;100322.72;10402895;27;96651;-75
2022/03/03 01:50:18;;;;;;;25.27;9.17;;;-1.20;71.00;;;-3.44;63.29;100317.66;10436236;27;97038;-77
2022/03/03 01:55:22;;;;;;;28.80;8.77;;;-1.20;71.40;;;-3.50;63.21;100311.84;10478558;27;96616;-77
2022/03/03 02:00:25;;;;;;;19.87;7.20;;;-1.30;70.80;;;-3.48;64.22;100311.75;10447794;27;96534;-76
2022/03/03 02:05:29;;;;;;;19.30;7.30;;;-1.30;69.20;;;-3.44;64.86;100302.91;10392722;27;96679;-76
2022/03/03 02:10:32;;;;;;;23.23;8.63;;;-1.30;70.30;;;-3.41;65.51;100287.19;10396385;27;96666;-76
2022/03/03 02:15:35;;;;;;;21.77;8.80;;;-1.30;71.60;;;-3.41;65.67;100296.75;10445920;27;96726;-74
2022/03/03 02:20:38;;;;;;;21.47;8.30;;;-1.40;72.60;;;-3.46;65.96;100296.97;10441429;27;96963;-75
2022/03/03 02:25:42;;;;;;;26.30;9.90;;;-1.40;72.60;;;-3.55;65.67;100290.44;10413785;27;96722;-75
2022/03/03 02:30:49;;;;;;;24.07;8.43;;;-1.40;74.60;;;-3.62;65.82;100299.47;10424717;27;97210;-75
2022/03/03 02:35:52;;;;;;;19.20;7.33;;;-1.50;74.80;;;-3.67;66.90;100291.06;10405960;27;96740;-75
2022/03/03 02:40:55;;;;;;;14.03;6.37;;;-1.50;79.20;;;-3.67;67.11;100288.47;10411655;27;96448;-76
2022/03/03 02:45:58;;;;;;;15.53;6.80;;;-1.60;82.10;;;-3.68;67.48;100284.19;10425497;27;96501;-76
2022/03/03 02:51:02;;;;;;;17.93;6.63;;;-1.60;79.20;;;-3.74;67.06;100273.25;10449330;27;96565;-77
2022/03/03 02:56:06;;;;;;;16.97;7.10;;;-1.60;78.00;;;-3.83;66.69;100267.63;10443430;27;96610;-75
2022/03/03 03:01:10;;;;;;;18.87;7.10;;;-1.70;82.30;;;-3.91;67.34;100285.31;10434096;27;98468;-75
2022/03/03 03:06:14;;;;;;;21.80;7.27;;;-1.70;81.80;;;-3.99;67.78;100277.06;10419169;27;96764;-76
2022/03/03 03:11:17;;;;;;;20.23;8.00;;;-1.80;79.90;;;-4.04;67.68;100277.25;10405327;27;96607;-76
2022/03/03 03:16:20;;;;;;;21.07;8.70;;;-1.90;81.50;;;-4.08;68.56;100269.69;10427361;27;97013;-76
2022/03/03 03:21:23;;;;;;;23.53;7.80;;;-1.90;81.10;;;-4.14;68.53;100270.84;10457867;27;96719;-76
2022/03/03 03:26:27;;;;;;;26.27;9.17;;;-1.90;83.10;;;-4.19;68.68;100270.22;10412512;27;96470;-75
2022/03/03 03:31:29;;;;;;;21.43;9.40;;;-2.00;84.60;;;-4.25;68.20;100267.94;10440435;27;97172;-75
2022/03/03 03:36:32;;;;;;;19.73;8.83;;;-2.00;84.80;;;-4.32;69.42;100269.09;10431728;27;96607;-76
2022/03/03 03:41:35;;;;;;;20.97;7.00;;;-2.10;88.10;;;-4.37;69.75;100264.16;10444348;27;96734;-76
2022/03/03 03:46:38;;;;;;;18.67;7.43;;;-2.10;85.70;;;-4.42;70.03;100273.06;10463246;27;96512;-75
2022/03/03 03:51:41;;;;;;;23.30;7.83;;;-2.20;89.20;;;-4.44;70.32;100264.47;10421932;27;96560;-75
2022/03/03 03:56:45;;;;;;;18.80;7.33;;;-2.20;86.30;;;-4.45;70.85;100265.41;10422697;27;96602;-75
2022/03/03 04:01:47;;;;;;;16.37;7.17;;;-2.20;86.40;;;-4.48;71.02;100266.41;10447669;27;96641;-75
2022/03/03 04:06:51;;;;;;;19.90;9.00;;;-2.30;88.30;;;-4.51;71.13;100265.69;10448185;27;96909;-75
2022/03/03 04:11:53;;;;;;;15.83;6.77;;;-2.30;91.70;;;-4.55;71.74;100266.75;10468404;27;98105;-75
2022/03/03 04:16:56;;;;;;;21.33;7.40;;;-2.40;92.20;;;-4.61;71.71;100266.13;10440610;27;96662;-77
2022/03/03 04:21:59;;;;;;;17.93;7.67;;;-2.40;90.90;;;-4.62;72.06;100266.19;10440038;27;96632;-74
2022/03/03 04:27:04;;;;;;;26.87;10.13;;;-2.50;95.50;;;-4.63;73.06;100262.75;10446754;27;96489;-75
2022/03/03 04:32:08;;;;;;;24.40;9.37;;;-2.50;94.60;;;-4.64;73.26;100255.88;10425386;27;96987;-76
2022/03/03 04:37:10;;;;;;;23.23;9.07;;;-2.50;96.30;;;-4.64;73.28;100255.88;10433547;27;96712;-75
2022/03/03 04:42:14;;;;;;;21.50;8.13;;;-2.40;94.30;;;-4.61;74.08;100270.47;10439990;27;98401;-77
2022/03/03 04:47:17;;;;;;;20.37;8.13;;;-2.50;91.30;;;-4.63;74.21;100256.72;10436281;27;98068;-76
2022/03/03 04:52:20;;;;;;;41.50;11.53;;;-2.50;96.40;;;-4.68;73.80;100264.72;10432525;27;96673;-76
2022/03/03 04:57:24;;;;;;;18.63;7.40;;;-2.50;95.40;;;-4.73;74.11;100256.31;10446104;27;96599;-76
2022/03/03 05:02:27;;;;;;;27.07;9.57;;;-2.60;95.10;;;-4.79;73.81;100253.16;10407681;27;96646;-76
2022/03/03 05:07:30;;;;;;;32.40;12.07;;;-2.60;95.10;;;-4.87;73.88;100248.31;10397875;28;96600;-76
2022/03/03 05:12:33;;;;;;;38.07;13.47;;;-2.60;94.10;;;-4.94;74.07;100254.69;10441797;27;98347;-77
2022/03/03 05:17:36;;;;;;;47.67;16.70;;;-2.70;94.60;;;-5.00;74.07;100262.72;10448729;27;96588;-77
2022/03/03 05:22:40;;;;;;;49.70;14.73;;;-2.70;96.50;;;-5.01;74.12;100276.59;10439305;27;96535;-77
2022/03/03 05:27:43;;;;;;;39.57;12.40;;;-2.80;97.30;;;-5.01;74.87;100267.06;10422091;27;96732;-76
2022/03/03 05:32:48;;;;;;;23.83;10.00;;;-2.80;99.70;;;-5.00;75.02;100258.38;10396361;27;96537;-77
2022/03/03 05:37:52;;;;;;;30.70;10.83;;;-2.80;98.30;;;-4.96;75.62;100254.75;10423061;27;96622;-77
2022/03/03 05:42:55;;;;;;;26.40;12.37;;;-2.80;97.30;;;-4.90;75.57;100264.00;10413052;27;96959;-76
2022/03/03 05:47:58;;;;;;;27.27;10.57;;;-2.70;97.80;;;-4.85;75.72;100262.06;10395602;28;96473;-76
2022/03/03 05:53:01;;;;;;;22.70;10.00;;;-2.70;99.10;;;-4.79;75.69;100259.19;10427064;27;96772;-76
2022/03/03 05:58:11;;;;;;;34.40;13.37;;;-2.70;98.40;;;-4.71;75.93;100270.03;10430762;27;97053;-76
2022/03/03 06:03:20;;;;;;;34.20;13.73;;;-2.60;98.90;;;-4.60;76.43;100275.59;10427681;27;96727;-76
2022/03/03 06:08:30;;;;;;;37.17;13.50;;;-2.50;99.90;;;-4.48;76.34;100270.75;10419847;28;96773;-76
2022/03/03 06:13:39;;;;;;;25.77;10.47;;;-2.50;99.90;;;-4.34;76.36;100268.34;10447389;27;97821;-76
2022/03/03 06:18:46;;;;;;;32.27;12.07;;;-2.40;99.90;;;-4.19;76.45;100278.00;10403641;28;96517;-76
2022/03/03 06:23:48;;;;;;;26.50;11.73;;;-2.20;99.20;;;-4.04;76.31;100285.06;10431953;27;96522;-76
2022/03/03 06:28:52;;;;;;;38.37;14.77;;;-2.10;98.80;;;-3.86;76.16;100290.28;10464164;27;96524;-76
2022/03/03 06:33:55;;;;;;;43.73;12.20;;;-2.00;99.90;;;-3.70;75.95;100295.59;10429578;27;96447;-76
2022/03/03 06:38:58;;;;;;;34.60;13.47;;;-1.80;99.90;;;-3.56;75.92;100296.56;10427804;27;96481;-77
2022/03/03 06:44:02;;;;;;;29.40;11.60;;;-1.70;99.90;;;-3.42;76.09;100289.84;10447164;27;96533;-77
2022/03/03 06:49:05;;;;;;;33.67;14.03;;;-1.50;99.90;;;-3.30;75.89;100284.88;10403922;28;96708;-76
2022/03/03 06:54:21;;;;;;;32.63;13.57;;;-1.40;99.90;;;-3.14;75.77;100290.13;10421360;28;96470;-76
2022/03/03 06:59:29;;;;;;;30.07;12.90;;;-1.30;99.40;;;-2.93;75.44;100276.94;10455972;27;96642;-76
2022/03/03 07:04:33;;;;;;;30.80;13.50;;;-1.10;99.10;;;-2.70;75.41;100292.16;10454541;27;98115;-76
2022/03/03 07:09:37;;;;;;;33.80;15.23;;;-0.90;97.60;;;-2.43;74.69;100282.88;10455401;27;96591;-76
2022/03/03 07:14:40;;;;;;;37.87;15.27;;;-0.70;97.90;;;-2.16;74.00;100279.69;10428396;27;96614;-76
2022/03/03 07:20:06;;;;;;;32.13;15.77;;;-0.50;97.80;;;-1.85;73.48;100278.81;10418980;28;96479;-76
2022/03/03 07:25:14;;;;;;;47.40;19.90;;;-0.20;96.90;;;-1.54;72.86;100283.09;10401061;28;96481;-75
2022/03/03 07:30:17;;;;;;;41.47;17.17;;;0.10;96.90;;;-1.23;72.22;100273.50;10427842;27;96626;-75
2022/03/03 07:35:25;;;;;;;39.47;17.03;;;0.40;96.40;;;-0.88;71.24;100264.38;10418827;28;96700;-75
2022/03/03 07:40:30;;;;;;;34.90;15.90;;;0.80;95.70;;;-0.52;69.61;100264.81;10422912;27;96492;-75
2022/03/03 07:45:33;;;;;;;33.07;16.47;;;1.10;95.10;;;-0.20;68.20;100261.00;10434053;27;96432;-75
2022/03/03 07:50:39;;;;;;;30.87;16.53;;;1.40;94.30;;;0.08;66.24;100260.09;10441724;27;96555;-75
2022/03/03 07:55:45;;;;;;;34.87;14.77;;;1.70;93.30;;;0.93;66.45;100244.84;10427872;27;96538;-75
2022/03/03 08:00:51;;;;;;;28.33;15.00;;;2.10;93.40;;;2.57;63.31;100234.69;10416988;27;96529;-74
2022/03/03 08:05:56;;;;;;;25.77;12.97;;;2.70;93.10;;;3.85;58.14;100230.84;10403108;27;97636;-75
2022/03/03 08:11:07;;;;;;;26.70;14.73;;;3.50;92.00;;;4.77;54.73;100214.38;10422190;27;98272;-76
2022/03/03 08:16:10;;;;;;;31.60;15.57;;;4.30;91.30;;;5.32;52.05;100214.88;10436391;27;97135;-77
2022/03/03 08:21:15;;;;;;;32.00;15.00;;;5.00;89.90;;;5.71;49.21;100214.16;10440090;27;96531;-76
2022/03/03 08:26:18;;;;;;;42.37;15.87;;;5.60;85.30;;;5.90;48.67;100208.91;10439980;27;96556;-77
2022/03/03 08:31:32;;;;;;;591.60;134.73;;;6.10;80.50;;;6.44;47.53;100202.25;10458245;27;96467;-77
2022/03/03 08:36:54;;;;;;;49.80;20.90;;;6.50;75.70;;;7.07;45.43;100199.84;10399283;28;96552;-77
2022/03/03 08:42:00;;;;;;;34.57;15.93;;;7.00;76.50;;;7.47;45.03;100190.78;10434163;27;96523;-76
2022/03/03 08:47:25;;;;;;;36.43;17.47;;;7.60;73.90;;;7.74;43.54;100188.09;10442961;27;97353;-76
2022/03/03 08:52:28;;;;;;;63.70;21.23;;;8.10;71.30;;;7.73;43.04;100181.13;10440120;27;96600;-76
2022/03/03 08:57:31;;;;;;;101.47;25.30;;;8.50;67.90;;;8.14;42.36;100188.63;10437607;27;96539;-76
2022/03/03 09:02:34;;;;;;;26.70;13.03;;;8.90;66.20;;;8.63;41.60;100181.91;10413185;27;97570;-76
2022/03/03 09:07:38;;;;;;;23.03;10.97;;;9.30;63.40;;;8.88;37.22;100187.38;10397414;28;96798;-76
2022/03/03 09:12:41;;;;;;;20.50;10.37;;;9.70;60.00;;;9.23;38.42;100176.59;10436835;27;96517;-76
2022/03/03 09:17:46;;;;;;;27.23;14.43;;;9.80;57.40;;;9.53;38.05;100175.19;10434503;27;96719;-76
2022/03/03 09:22:49;;;;;;;43.97;21.27;;;10.10;57.10;;;9.91;36.57;100160.53;10422957;27;97362;-76
2022/03/03 09:27:52;;;;;;;20.63;11.87;;;10.50;56.00;;;10.34;35.03;100158.56;10413588;28;96598;-76
2022/03/03 09:32:55;;;;;;;19.97;10.70;;;10.80;55.10;;;10.62;34.51;100150.25;10393007;28;98692;-76
2022/03/03 09:37:58;;;;;;;18.17;10.40;;;11.20;54.20;;;10.93;34.58;100156.47;10406356;28;96720;-76
2022/03/03 09:43:05;;;;;;;16.10;9.80;;;11.40;52.20;;;11.14;33.14;100157.72;10409866;27;97184;-76
2022/03/03 09:48:09;;;;;;;15.95;9.50;;;11.80;50.80;;;11.23;33.49;100146.88;10398799;28;96766;-76
2022/03/03 09:53:16;;;;;;;25.42;10.40;;;12.00;49.70;;;11.51;33.47;100141.06;10429783;27;96635;-76
2022/03/03 09:58:19;;;;;;;16.50;10.60;;;12.40;49.30;;;11.83;32.67;100152.56;10421584;27;96537;-76
2022/03/03 10:03:22;;;;;;;16.90;11.10;;;12.70;48.20;;;11.78;32.39;100145.91;10437155;27;96424;-76
2022/03/03 10:08:27;;;;;;;17.77;10.93;;;12.90;47.60;;;11.66;32.95;100134.00;10437899;27;96582;-76
2022/03/03 10:13:49;;;;;;;17.38;10.25;;;12.90;48.00;;;11.62;31.97;100132.69;10415377;27;98380;-76
2022/03/03 10:19:01;;;;;;;18.13;10.03;;;12.80;46.40;;;10.96;32.98;100134.84;10395955;28;96540;-77
2022/03/03 10:24:29;;;;;;;16.93;9.37;;;12.40;46.10;;;11.01;32.77;100126.34;10404795;27;97556;-76
2022/03/03 10:29:35;;;;;;;14.98;7.85;;;12.30;45.70;;;11.42;31.83;100116.34;10411479;27;96608;-76
2022/03/03 10:34:38;;;;;;;16.42;9.07;;;12.60;45.30;;;11.52;31.17;100119.63;10454990;27;96516;-76
2022/03/03 10:39:48;;;;;;;16.35;9.10;;;12.60;43.90;;;11.69;31.57;100114.16;10437334;27;96884;-76
2022/03/03 10:45:11;;;;;;;13.60;8.63;;;12.80;44.70;;;12.00;31.15;100096.34;10388727;27;98388;-76
2022/03/03 10:50:15;;;;;;;13.13;8.43;;;13.00;44.30;;;12.33;30.82;100083.53;10423424;27;96530;-76
2022/03/03 10:55:19;;;;;;;16.17;8.73;;;13.40;44.00;;;12.42;30.04;100084.28;10401111;28;96506;-76
2022/03/03 11:00:34;;;;;;;16.88;10.13;;;13.60;43.60;;;12.43;30.51;100083.28;10419971;27;97481;-76
2022/03/03 11:05:39;;;;;;;15.82;8.88;;;13.60;43.80;;;12.51;29.91;100064.53;10419502;28;96464;-76
2022/03/03 11:10:42;;;;;;;18.08;8.88;;;13.70;43.00;;;12.52;29.76;100068.00;10418809;27;96475;-76
2022/03/03 11:15:45;;;;;;;14.30;9.27;;;13.70;42.50;;;12.39;29.65;100059.84;10402106;27;96555;-76
2022/03/03 11:20:49;;;;;;;15.60;10.23;;;13.70;42.50;;;11.81;30.21;100051.56;10402264;28;96669;-76
2022/03/03 11:25:52;;;;;;;14.83;9.33;;;13.30;42.00;;;11.75;30.53;100060.22;10400513;28;96578;-76
2022/03/03 11:30:58;;;;;;;14.10;8.93;;;13.20;42.50;;;11.75;29.75;100054.91;10417776;27;96787;-76
2022/03/03 11:36:09;;;;;;;16.60;9.27;;;13.20;42.30;;;11.22;30.37;100054.78;10430108;27;96926;-76
2022/03/03 11:41:13;;;;;;;18.15;9.80;;;12.70;41.80;;;10.77;31.22;100044.88;10432459;27;96777;-76
2022/03/03 11:46:50;;;;;;;23.30;11.33;;;12.30;42.50;;;10.32;31.52;100038.41;10440821;27;96636;-76
2022/03/03 11:52:07;;;;;;;192.50;52.73;;;12.00;42.80;;;9.74;32.93;100042.09;10432641;27;96477;-76
2022/03/03 11:57:10;;;;;;;176.27;47.23;;;11.50;43.20;;;9.34;33.67;100030.44;10395505;28;96479;-76
2022/03/03 12:02:19;;;;;;;52.80;19.87;;;11.00;43.90;;;9.21;34.43;100030.09;10419020;27;97066;-76
2022/03/03 12:07:30;;;;;;;25.77;12.67;;;10.80;44.70;;;9.95;34.49;100016.84;10447877;27;96904;-76
2022/03/03 12:12:32;;;;;;;61.25;26.05;;;11.20;45.50;;;10.89;32.40;100010.75;10403204;28;96691;-76
2022/03/03 12:17:47;;;;;;;21.57;12.10;;;12.00;45.10;;;11.34;32.09;99994.03;10399445;28;96561;-76
2022/03/03 12:23:07;;;;;;;37.23;14.70;;;12.50;44.30;;;11.40;31.05;99990.66;10418163;27;96625;-76
2022/03/03 12:28:47;;;;;;;26.07;13.03;;;12.80;43.20;;;11.21;31.39;99986.63;10428732;27;96678;-77
2022/03/03 12:34:08;;;;;;;22.23;11.70;;;12.60;42.90;;;10.80;31.79;99991.38;10440881;27;96482;-76
2022/03/03 12:39:16;;;;;;;23.63;11.73;;;12.30;43.10;;;10.11;32.59;99985.78;10432612;27;96596;-76
2022/03/03 12:44:19;;;;;;;30.00;16.63;;;11.80;43.20;;;9.66;33.78;99981.06;10415399;27;96771;-76
2022/03/03 12:49:23;;;;;;;20.93;12.00;;;11.30;44.00;;;9.33;33.92;99981.06;10398501;28;96438;-76
2022/03/03 12:54:30;;;;;;;18.00;10.37;;;11.00;44.20;;;9.09;34.64;99978.38;10416155;27;97012;-76
2022/03/03 12:59:33;;;;;;;19.63;10.83;;;10.70;44.90;;;8.95;34.72;99977.22;10422732;27;96596;-75
2022/03/03 13:04:48;;;;;;;15.80;8.87;;;10.60;44.80;;;9.00;34.27;99966.97;10457675;27;96411;-76
2022/03/03 13:09:56;;;;;;;19.93;10.73;;;10.50;44.90;;;8.97;34.99;99963.78;10417035;27;96567;-77
2022/03/03 13:15:00;;;;;;;19.73;10.63;;;10.40;45.50;;;8.96;35.50;99951.53;10415520;28;96745;-77
2022/03/03 13:20:04;;;;;;;17.60;9.87;;;10.50;45.70;;;9.01;35.34;99947.41;10410758;27;96873;-77
2022/03/03 13:25:33;;;;;;;23.63;11.33;;;10.50;46.00;;;8.92;35.46;99942.25;10444276;27;96622;-76
2022/03/03 13:30:36;;;;;;;19.97;11.50;;;10.50;45.80;;;8.79;36.10;99940.91;10410554;28;96651;-77
2022/03/03 13:35:44;;;;;;;18.67;9.97;;;10.40;46.10;;;8.63;36.38;99938.22;10398297;28;96566;-77
2022/03/03 13:40:47;;;;;;;18.13;10.07;;;10.30;46.20;;;8.49;36.68;99936.19;10403769;27;96546;-77
2022/03/03 13:45:50;;;;;;;19.30;11.27;;;10.20;46.50;;;8.36;36.66;99933.16;10438372;27;96511;-77
2022/03/03 13:51:04;;;;;;;20.93;11.17;;;10.00;46.50;;;8.32;37.21;99932.63;10441840;27;96561;-77
2022/03/03 13:56:11;;;;;;;19.70;11.20;;;9.90;46.90;;;8.34;36.85;99933.31;10414725;27;96600;-77
2022/03/03 14:01:27;;;;;;;20.43;11.33;;;9.90;46.90;;;8.39;37.40;99927.53;10413984;28;97274;-77
2022/03/03 14:06:30;;;;;;;20.27;10.53;;;9.90;47.40;;;8.42;36.93;99921.94;10401960;27;96528;-77
2022/03/03 14:11:34;;;;;;;16.90;10.20;;;10.00;47.20;;;8.46;37.04;99916.16;10430509;27;96678;-77
2022/03/03 14:16:37;;;;;;;16.87;9.67;;;10.00;47.20;;;8.53;37.29;99905.75;10429011;27;96934;-77
2022/03/03 14:21:40;;;;;;;17.50;9.53;;;10.10;47.40;;;8.47;37.31;99906.41;10454486;27;98570;-77
2022/03/03 14:26:43;;;;;;;15.13;8.97;;;10.00;47.50;;;8.35;36.83;99910.31;10422964;27;96586;-77
2022/03/03 14:31:46;;;;;;;17.47;9.90;;;10.00;47.20;;;8.27;36.96;99906.63;10445860;27;96595;-76
2022/03/03 14:36:49;;;;;;;18.13;10.13;;;9.90;47.10;;;8.32;37.61;99908.78;10464756;27;97055;-76
2022/03/03 14:41:52;;;;;;;18.23;10.70;;;9.90;47.70;;;8.24;37.56;99900.84;10431933;27;96501;-76
2022/03/03 14:46:55;;;;;;;18.10;9.87;;;9.90;47.70;;;8.19;37.09;99897.84;10428145;27;96579;-77
2022/03/03 14:51:58;;;;;;;19.00;10.20;;;9.80;47.30;;;8.24;37.30;99901.66;10424941;27;96586;-77
2022/03/03 14:57:02;;;;;;;17.80;9.10;;;9.80;47.70;;;8.23;37.58;99897.34;10429341;27;96800;-77
2022/03/03 15:02:08;;;;;;;19.17;10.10;;;9.80;47.80;;;8.20;37.77;99891.53;10442821;27;96628;-77
2022/03/03 15:07:12;;;;;;;17.33;9.83;;;9.80;48.00;;;8.19;38.13;99896.00;10440307;27;96553;-77
2022/03/03 15:12:15;;;;;;;18.67;11.10;;;9.80;48.30;;;8.18;38.00;99902.28;10447847;27;98239;-77
2022/03/03 15:17:18;;;;;;;20.73;10.97;;;9.80;48.00;;;8.20;37.99;99891.53;10450706;27;96516;-77
2022/03/03 15:22:20;;;;;;;25.80;12.20;;;9.80;48.10;;;8.06;37.58;99887.69;10433372;27;96513;-77
2022/03/03 15:27:24;;;;;;;25.13;12.57;;;9.70;47.90;;;7.78;37.62;99890.53;10434934;27;98323;-77
2022/03/03 15:32:27;;;;;;;48.20;26.30;;;9.50;48.00;;;7.46;38.71;99898.28;10422871;27;96562;-77
2022/03/03 15:37:31;;;;;;;29.97;15.53;;;9.10;48.50;;;7.14;39.39;99894.41;10439034;27;96552;-76
2022/03/03 15:42:35;;;;;;;26.03;14.10;;;8.80;48.80;;;6.82;39.60;99894.13;10446124;27;97979;-76
2022/03/03 15:47:38;;;;;;;26.27;15.33;;;8.50;48.90;;;6.58;40.41;99892.06;10430274;27;96560;-77
2022/03/03 15:52:41;;;;;;;20.27;12.27;;;8.30;49.50;;;6.32;40.97;99902.53;10438848;27;96900;-76
2022/03/03 15:57:45;;;;;;;24.63;12.03;;;8.10;50.00;;;6.09;41.16;99912.63;10441754;27;97507;-76
2022/03/03 16:02:48;;;;;;;20.97;11.50;;;7.80;50.20;;;5.93;41.62;99907.97;10418441;27;96737;-77
2022/03/03 16:07:51;;;;;;;24.93;11.60;;;7.60;50.50;;;5.80;42.16;99915.34;10414367;27;97000;-77
2022/03/03 16:12:55;;;;;;;76.57;40.97;;;7.50;51.00;;;5.68;42.19;99921.78;10417143;28;97999;-77
2022/03/03 16:17:58;;;;;;;40.77;19.77;;;7.40;51.00;;;5.54;42.67;99913.34;10396180;27;96518;-77
2022/03/03 16:23:01;;;;;;;41.30;20.43;;;7.30;51.30;;;5.45;42.86;99921.28;10430286;27;96600;-77
2022/03/03 16:28:04;;;;;;;24.60;13.37;;;7.10;51.50;;;5.33;43.03;99915.31;10427081;27;98023;-76
2022/03/03 16:33:07;;;;;;;32.53;15.57;;;7.00;51.60;;;5.23;43.45;99925.91;10421895;27;96591;-77
2022/03/03 16:38:10;;;;;;;27.97;13.77;;;6.90;51.90;;;5.13;43.74;99911.06;10395893;27;96656;-77
2022/03/03 16:43:13;;;;;;;24.00;11.47;;;6.80;52.10;;;5.05;43.74;99917.03;10444390;27;96645;-77
2022/03/03 16:48:16;;;;;;;24.87;13.83;;;6.70;52.20;;;5.00;44.12;99922.72;10417856;27;96622;-77
2022/03/03 16:53:18;;;;;;;21.90;12.27;;;6.70;52.40;;;4.92;44.02;99914.69;10446894;27;96593;-77
2022/03/03 16:58:22;;;;;;;26.50;11.67;;;6.60;52.60;;;4.88;44.20;99920.34;10398369;27;96497;-77
2022/03/03 17:03:25;;;;;;;31.90;13.63;;;6.50;52.90;;;4.83;44.70;99933.94;10413465;27;96637;-76
2022/03/03 17:08:28;;;;;;;32.30;15.83;;;6.50;53.10;;;4.78;44.96;99925.59;10444684;27;96764;-76
2022/03/03 17:13:32;;;;;;;29.67;14.53;;;6.40;53.50;;;4.75;44.63;99929.34;10433258;27;96719;-77
2022/03/03 17:18:37;;;;;;;25.40;12.67;;;6.40;53.40;;;4.74;44.61;99924.25;10434712;27;96791;-77
2022/03/03 17:23:40;;;;;;;27.07;11.90;;;6.40;53.40;;;4.73;44.88;99923.38;10403808;27;98464;-78
2022/03/03 17:28:45;;;;;;;26.13;12.70;;;6.40;53.40;;;4.72;45.03;99920.88;10399758;27;96618;-77
2022/03/03 17:33:48;;;;;;;24.40;11.50;;;6.40;53.50;;;4.69;44.85;99918.56;10411673;27;96705;-77
2022/03/03 17:38:51;;;;;;;23.00;11.20;;;6.40;53.50;;;4.69;44.86;99923.81;10424374;27;98214;-77
2022/03/03 17:43:54;;;;;;;43.63;19.73;;;6.40;53.60;;;4.67;45.12;99921.28;10412850;27;97001;-78
2022/03/03 17:48:57;;;;;;;40.10;19.37;;;6.30;53.90;;;4.66;45.39;99916.19;10411377;27;96697;-77
2022/03/03 17:54:00;;;;;;;29.90;15.07;;;6.30;53.90;;;4.63;45.40;99921.72;10433117;27;96638;-77
2022/03/03 17:59:03;;;;;;;26.33;11.83;;;6.30;53.90;;;4.60;45.54;99919.34;10445351;27;96594;-77
2022/03/03 18:04:06;;;;;;;26.77;12.63;;;6.30;54.10;;;4.54;45.64;99918.94;10464105;27;96533;-77
2022/03/03 18:09:09;;;;;;;22.83;10.83;;;6.30;54.20;;;4.47;46.22;99923.06;10441451;27;97607;-77
2022/03/03 18:14:12;;;;;;;26.87;12.73;;;6.20;54.30;;;4.44;46.05;99922.53;10403011;28;96700;-77
2022/03/03 18:19:15;;;;;;;25.93;11.83;;;6.20;54.20;;;4.40;46.27;99931.66;10423897;27;96524;-77
2022/03/03 18:24:22;;;;;;;20.50;10.53;;;6.10;54.70;;;4.35;46.53;99929.41;10441798;27;96657;-77
2022/03/03 18:29:25;;;;;;;27.43;9.83;;;6.10;55.00;;;4.30;46.36;99931.63;10419719;28;96566;-78
2022/03/03 18:34:28;;;;;;;19.83;10.03;;;6.10;55.00;;;4.24;46.55;99932.97;10414430;27;96489;-78
2022/03/03 18:39:31;;;;;;;23.63;10.77;;;6.00;55.00;;;4.17;46.97;99928.41;10434094;27;96935;-76
2022/03/03 18:44:34;;;;;;;20.93;10.60;;;6.00;55.40;;;4.12;47.42;99936.69;10436936;27;97608;-78
2022/03/03 18:49:39;;;;;;;27.23;12.60;;;5.90;55.80;;;4.03;47.97;99933.06;10444094;27;96638;-76
2022/03/03 18:54:44;;;;;;;19.40;10.23;;;5.80;56.20;;;3.95;48.48;99937.28;10406226;27;96607;-77
2022/03/03 18:59:48;;;;;;;19.03;9.83;;;5.70;56.40;;;3.93;48.06;99934.81;10421189;27;96588;-77
2022/03/03 19:04:51;;;;;;;23.83;12.23;;;5.70;56.50;;;3.92;48.07;99932.31;10439713;27;96567;-77
2022/03/03 19:09:54;;;;;;;21.57;10.67;;;5.70;56.20;;;3.91;48.35;99926.22;10444324;27;97328;-78
2022/03/03 19:14:57;;;;;;;22.97;11.13;;;5.60;56.40;;;3.87;48.67;99930.06;10441035;27;96577;-76
2022/03/03 19:20:01;;;;;;;25.80;11.63;;;5.60;56.60;;;3.80;48.79;99930.75;10427904;27;97106;-76
2022/03/03 19:25:06;;;;;;;27.27;12.00;;;5.60;56.60;;;3.72;48.84;99934.03;10415478;27;96646;-76
2022/03/03 19:30:10;;;;;;;26.97;12.63;;;5.50;56.90;;;3.63;48.92;99932.16;10442133;27;97222;-76
2022/03/03 19:35:13;;;;;;;36.40;18.47;;;5.40;56.80;;;3.53;48.97;99928.63;10401839;28;96628;-76
2022/03/03 19:40:16;;;;;;;31.57;14.23;;;5.40;57.00;;;3.42;49.00;99922.50;10417592;27;96595;-76
2022/03/03 19:45:20;;;;;;;23.27;11.47;;;5.30;57.00;;;3.31;49.54;99933.09;10437088;27;98354;-76
2022/03/03 19:50:23;;;;;;;25.97;12.97;;;5.20;57.70;;;3.14;50.52;99926.59;10431092;27;96545;-76
2022/03/03 19:55:26;;;;;;;26.93;14.10;;;5.10;58.70;;;2.97;51.34;99931.56;10426233;27;96603;-77
2022/03/03 20:00:29;;;;;;;29.30;12.97;;;4.90;58.30;;;2.85;51.15;99941.28;10415416;27;97507;-78
2022/03/03 20:05:32;;;;;;;30.10;15.90;;;4.70;58.30;;;2.76;51.18;99942.00;10441238;27;96574;-76
2022/03/03 20:15:57;;;;;;;36.13;15.45;;;4.50;58.20;;;2.59;49.93;99949.47;10419335;27;96469;-76
2022/03/03 20:21:00;;;;;;;35.07;14.83;;;4.40;58.00;;;2.44;49.79;99955.09;10430700;27;96612;-76
2022/03/03 20:26:07;;;;;;;29.23;12.43;;;4.30;57.80;;;2.26;49.57;99960.84;10427971;27;98638;-77
2022/03/03 20:31:11;;;;;;;33.67;14.73;;;4.10;57.80;;;2.07;49.60;99956.19;10427616;27;96957;-78
2022/03/03 20:36:15;;;;;;;33.40;15.37;;;4.00;57.70;;;1.91;49.97;99954.88;10431411;27;97025;-77
2022/03/03 20:41:19;;;;;;;40.10;17.13;;;3.80;57.50;;;1.70;51.38;99958.22;10420704;27;96490;-77
2022/03/03 20:46:23;;;;;;;37.03;17.17;;;3.70;58.40;;;1.49;51.40;99960.66;10457852;27;96593;-79
2022/03/03 20:51:26;;;;;;;34.97;15.87;;;3.50;58.50;;;1.23;52.44;99952.16;10430314;27;96996;-77
2022/03/03 20:56:29;;;;;;;43.53;18.23;;;3.30;60.40;;;0.97;53.62;99959.31;10439442;27;96863;-77